Time;durP1;ratioP1;P1;durP2;ratioP2;P2;SDS_P1;SDS_P2;PMS_P1;PMS_P2;Temp;Humidity;BMP_temperature;BMP_pressure;BME280_temperature;BME280_humidity;BME280_pressure;Samples;Min_cycle;Max_cycle;Signal;HPM_P1;HPM_P2
2021/09/16 00:01:37;;;;;;;12.65;11.43;;;23.60;99.90;;;;;;5118593;28;20043;-79
2021/09/16 00:04:04;;;;;;;11.52;10.45;;;23.70;99.90;;;;;;5131721;28;20020;-79
2021/09/16 00:06:30;;;;;;;12.63;11.43;;;23.70;99.90;;;;;;5117632;28;20049;-79
2021/09/16 00:08:56;;;;;;;13.65;10.43;;;23.60;99.90;;;;;;5110371;28;20023;-79
2021/09/16 00:11:22;;;;;;;12.45;11.25;;;23.60;99.90;;;;;;5110825;28;20020;-79
2021/09/16 00:13:48;;;;;;;12.45;11.45;;;23.60;99.90;;;;;;5104649;28;20119;-79
2021/09/16 00:16:14;;;;;;;12.52;11.02;;;23.60;99.90;;;;;;5110236;28;20027;-78
2021/09/16 00:18:40;;;;;;;12.23;11.20;;;23.60;99.90;;;;;;5116799;28;20442;-79
2021/09/16 00:21:06;;;;;;;14.48;11.88;;;23.60;99.90;;;;;;5116092;28;20085;-79
2021/09/16 00:23:32;;;;;;;12.60;11.40;;;23.60;99.90;;;;;;5085238;28;20023;-79
2021/09/16 00:26:09;;;;;;;12.63;11.63;;;23.60;99.90;;;;;;5102535;28;20024;-79
2021/09/16 00:29:01;;;;;;;15.25;11.88;;;23.60;99.90;;;;;;5107134;28;20039;-79
2021/09/16 00:31:27;;;;;;;15.18;11.30;;;23.70;99.90;;;;;;5090192;28;20050;-79
2021/09/16 00:33:55;;;;;;;18.25;12.35;;;23.70;99.90;;;;;;5089603;28;20368;-79
2021/09/16 00:36:21;;;;;;;13.52;10.65;;;23.70;99.90;;;;;;5052988;28;20029;-79
2021/09/16 00:38:46;;;;;;;16.58;12.48;;;23.70;99.90;;;;;;5074153;28;20517;-79
2021/09/16 00:41:15;;;;;;;13.15;11.73;;;23.70;99.90;;;;;;5094290;28;20068;-80
2021/09/16 00:47:03;;;;;;;11.75;10.60;;;23.70;99.90;;;;;;5057930;28;20035;-80
2021/09/16 00:49:32;;;;;;;14.40;10.75;;;23.70;99.90;;;;;;5085505;28;20047;-80
2021/09/16 00:51:59;;;;;;;11.80;10.70;;;23.70;99.90;;;;;;5073050;28;20106;-80
2021/09/16 00:54:49;;;;;;;12.45;11.18;;;23.80;99.90;;;;;;5095006;28;20089;-79
2021/09/16 00:57:18;;;;;;;16.02;11.85;;;23.80;99.90;;;;;;5056892;28;20112;-79
2021/09/16 01:00:23;;;;;;;14.93;11.02;;;23.90;99.90;;;;;;5070972;28;20032;-80
2021/09/16 01:07:02;;;;;;;15.57;11.48;;;23.80;99.90;;;;;;5081430;28;20381;-80
2021/09/16 01:09:44;;;;;;;13.60;11.10;;;23.90;99.90;;;;;;5036157;28;20044;-79
2021/09/16 01:12:11;;;;;;;16.17;12.60;;;23.90;99.90;;;;;;5091889;28;20021;-79
2021/09/16 01:14:37;;;;;;;17.63;12.00;;;23.90;99.90;;;;;;5084912;28;20032;-79
2021/09/16 01:17:04;;;;;;;12.93;11.23;;;23.90;99.90;;;;;;5053354;28;20033;-81
2021/09/16 01:19:33;;;;;;;17.27;12.05;;;23.80;99.90;;;;;;5077632;28;20599;-79
2021/09/16 01:22:04;;;;;;;19.75;11.70;;;23.80;99.90;;;;;;5079575;28;20031;-79
2021/09/16 01:24:30;;;;;;;16.85;12.05;;;23.80;99.90;;;;;;5089898;28;20107;-79
2021/09/16 01:27:00;;;;;;;14.20;10.15;;;23.90;99.90;;;;;;5073354;28;20024;-79
2021/09/16 01:29:26;;;;;;;13.15;12.02;;;23.90;99.90;;;;;;5071222;28;20033;-79
2021/09/16 01:31:52;;;;;;;17.20;11.68;;;23.90;99.90;;;;;;5097096;28;20084;-79
2021/09/16 01:34:23;;;;;;;14.77;10.30;;;23.80;99.90;;;;;;5082669;28;20027;-79
2021/09/16 01:37:18;;;;;;;17.85;11.73;;;23.80;99.90;;;;;;5066128;28;20037;-79
2021/09/16 01:43:22;;;;;;;20.77;13.25;;;23.90;99.90;;;;;;5092003;28;20102;-79
2021/09/16 01:50:22;;;;;;;13.95;11.95;;;23.90;99.90;;;;;;5034529;28;20033;-79
2021/09/16 01:52:57;;;;;;;14.23;11.93;;;23.80;99.90;;;;;;5005764;28;20050;-79
2021/09/16 01:55:33;;;;;;;14.20;12.50;;;23.90;99.90;;;;;;5055535;28;20078;-79
2021/09/16 01:58:08;;;;;;;14.05;12.30;;;23.80;99.90;;;;;;5063609;28;20036;-79
2021/09/16 02:01:10;;;;;;;19.92;11.85;;;23.80;99.90;;;;;;5063371;28;20112;-79
2021/09/16 02:03:39;;;;;;;14.20;11.27;;;23.80;99.90;;;;;;5084473;28;20031;-79
2021/09/16 02:06:08;;;;;;;14.10;12.75;;;23.80;99.90;;;;;;5078278;28;20020;-80
2021/09/16 02:09:53;;;;;;;15.07;11.77;;;23.80;99.90;;;;;;5095307;28;20028;-80
2021/09/16 02:12:48;;;;;;;19.27;11.60;;;23.80;99.90;;;;;;5071360;28;20028;-79
2021/09/16 02:15:20;;;;;;;16.52;12.00;;;23.80;99.90;;;;;;5088272;28;20043;-79
2021/09/16 02:17:46;;;;;;;12.43;11.23;;;23.90;99.90;;;;;;5100019;28;20004;-78
2021/09/16 02:20:12;;;;;;;17.17;11.43;;;24.00;99.90;;;;;;5105337;28;20041;-81
2021/09/16 02:26:24;;;;;;;22.65;12.75;;;24.00;99.90;;;;;;5030775;28;20060;-77
2021/09/16 02:49:49;;;;;;;21.95;12.85;;;23.90;99.90;;;;;;4977941;28;20089;-80
2021/09/16 02:52:36;;;;;;;16.88;12.30;;;24.00;99.90;;;;;;5017071;28;20090;-77
2021/09/16 02:55:37;;;;;;;;;;;;;;;;;;;;;
2021/09/16 02:59:01;;;;;;;17.23;13.55;;;23.90;99.90;;;;;;5069212;28;20035;-77
2021/09/16 03:02:06;;;;;;;;;;;;;;;;;;;;;
2021/09/16 03:05:05;;;;;;;17.27;12.50;;;23.90;99.90;;;;;;5013134;28;20094;-79
2021/09/16 03:10:56;;;;;;;26.77;13.10;;;23.90;99.90;;;;;;5083894;28;20027;-78
2021/09/16 03:17:42;;;;;;;18.20;13.82;;;23.80;99.90;;;;;;5062129;28;20037;-77
2021/09/16 03:20:09;;;;;;;;;;;23.80;99.90;;;;;;5017610;28;20037;-77
2021/09/16 03:22:40;;;;;;;16.20;12.18;;;23.80;99.90;;;;;;5092532;28;19904;-78
2021/09/16 03:25:08;;;;;;;22.42;14.68;;;23.80;99.90;;;;;;5073748;28;20024;-78
2021/09/16 03:27:47;;;;;;;18.10;12.65;;;23.80;99.90;;;;;;5074189;28;20119;-77
2021/09/16 03:30:35;;;;;;;15.73;13.10;;;23.80;99.90;;;;;;5082063;28;20024;-80
2021/09/16 03:33:27;;;;;;;20.33;12.60;;;23.70;99.90;;;;;;5064911;28;20020;-77
2021/09/16 03:35:52;;;;;;;27.17;13.57;;;23.70;99.90;;;;;;5084125;28;20029;-78
2021/09/16 03:38:18;;;;;;;30.88;14.60;;;23.60;99.90;;;;;;5078905;28;20039;-78
2021/09/16 03:40:44;;;;;;;27.20;15.00;;;23.60;99.90;;;;;;5070920;28;20029;-78
2021/09/16 03:46:19;;;;;;;29.80;12.60;;;23.60;99.90;;;;;;5048785;28;20178;-77
2021/09/16 03:49:25;;;;;;;21.58;12.65;;;23.70;99.90;;;;;;5089399;28;20321;-78
2021/09/16 03:58:55;;;;;;;29.33;12.30;;;23.70;99.90;;;;;;5004249;28;20038;-78
2021/09/16 04:05:25;;;;;;;25.08;12.23;;;23.70;99.90;;;;;;4963366;29;20027;-77
2021/09/16 04:07:52;;;;;;;23.00;12.20;;;23.80;99.90;;;;;;4964264;28;20149;-79
2021/09/16 04:10:55;;;;;;;30.52;12.23;;;23.80;99.90;;;;;;5014156;28;20123;-78
2021/09/16 04:14:03;;;;;;;28.23;12.90;;;23.80;99.90;;;;;;5017456;28;20038;-77
2021/09/16 04:17:09;;;;;;;;;;;;;;;;;;;;;
2021/09/16 04:20:22;;;;;;;26.73;13.25;;;23.80;99.90;;;;;;4976256;28;20120;-77
2021/09/16 04:25:37;;;;;;;25.80;14.07;;;23.70;99.90;;;;;;5085815;28;20042;-78
2021/09/16 04:28:03;;;;;;;29.90;13.27;;;23.80;99.90;;;;;;5104906;28;20019;-78
2021/09/16 04:30:29;;;;;;;26.15;13.10;;;23.80;99.90;;;;;;5111798;28;20032;-78
2021/09/16 04:32:56;;;;;;;36.20;13.90;;;23.80;99.90;;;;;;5097187;28;20465;-78
2021/09/16 04:35:22;;;;;;;27.10;13.85;;;23.70;99.90;;;;;;5093414;28;20017;-78
2021/09/16 04:37:47;;;;;;;18.98;13.10;;;23.70;99.90;;;;;;5070794;28;20418;-78
2021/09/16 04:40:13;;;;;;;34.72;13.07;;;23.70;99.90;;;;;;5104251;28;20210;-78
2021/09/16 04:42:42;;;;;;;25.58;13.65;;;23.70;99.90;;;;;;5088450;28;20032;-79
2021/09/16 04:45:08;;;;;;;28.60;15.13;;;23.70;99.90;;;;;;5088266;28;20325;-77
2021/09/16 04:47:36;;;;;;;31.85;14.55;;;23.70;99.90;;;;;;5083564;28;20028;-78
2021/09/16 04:50:02;;;;;;;23.13;12.50;;;23.70;99.90;;;;;;5103746;28;20216;-78
2021/09/16 04:52:34;;;;;;;39.13;17.30;;;23.70;99.90;;;;;;5074681;28;20053;-81
2021/09/16 04:55:05;;;;;;;;;;;23.60;99.90;;;;;;5091497;28;20044;-79
2021/09/16 04:57:35;;;;;;;30.38;13.50;;;23.70;99.90;;;;;;5070690;28;20309;-80
2021/09/16 05:00:15;;;;;;;20.92;12.13;;;23.70;99.90;;;;;;5089091;28;20541;-78
2021/09/16 05:03:07;;;;;;;29.30;13.20;;;23.60;99.90;;;;;;5100947;28;20513;-78
2021/09/16 05:05:34;;;;;;;27.77;12.93;;;23.60;99.90;;;;;;5065778;28;20059;-79
2021/09/16 05:08:02;;;;;;;26.63;13.10;;;23.70;99.90;;;;;;5081751;28;20035;-78
2021/09/16 05:10:39;;;;;;;34.97;13.00;;;23.70;99.90;;;;;;5103053;28;20020;-77
2021/09/16 05:13:22;;;;;;;27.25;12.55;;;23.80;99.90;;;;;;5049352;28;20032;-78
2021/09/16 05:15:49;;;;;;;33.13;13.02;;;23.80;99.90;;;;;;5072839;28;20043;-79
2021/09/16 05:18:21;;;;;;;25.77;13.30;;;23.70;99.90;;;;;;5080768;28;20080;-80
2021/09/16 05:21:46;;;;;;;27.10;12.77;;;23.70;99.90;;;;;;5105065;28;20031;-79
2021/09/16 05:24:32;;;;;;;26.83;13.80;;;23.80;99.90;;;;;;5051412;28;20036;-79
2021/09/16 05:29:48;;;;;;;29.83;14.15;;;24.00;99.90;;;;;;5084667;28;20043;-77
2021/09/16 05:32:14;;;;;;;34.45;13.70;;;23.90;99.90;;;;;;5092833;28;20024;-78
2021/09/16 05:34:40;;;;;;;31.13;13.65;;;24.00;99.90;;;;;;5056646;28;20036;-78
2021/09/16 05:37:31;;;;;;;;;;;;;;;;;;;;;
2021/09/16 05:40:10;;;;;;;28.55;14.07;;;24.00;99.90;;;;;;5066849;28;20095;-77
2021/09/16 05:42:36;;;;;;;46.38;14.05;;;24.00;99.90;;;;;;5076736;28;20029;-78
2021/09/16 05:45:30;;;;;;;33.75;12.85;;;23.90;99.90;;;;;;5081504;28;20025;-77
2021/09/16 05:47:59;;;;;;;35.78;12.93;;;24.00;99.90;;;;;;5068019;28;20037;-78
2021/09/16 05:50:28;;;;;;;31.23;12.20;;;24.00;99.90;;;;;;5064751;28;20116;-80
2021/09/16 05:53:03;;;;;;;42.22;13.63;;;24.00;99.90;;;;;;5067880;28;20040;-77
2021/09/16 05:55:30;;;;;;;32.78;12.20;;;24.00;99.90;;;;;;5061984;28;20439;-77
2021/09/16 05:57:56;;;;;;;44.65;14.35;;;24.00;99.90;;;;;;5072821;28;20030;-79
2021/09/16 06:00:26;;;;;;;41.65;14.38;;;24.00;99.90;;;;;;5078373;28;20020;-78
2021/09/16 06:02:52;;;;;;;52.20;15.52;;;24.00;99.90;;;;;;5072509;28;20056;-77
2021/09/16 06:05:18;;;;;;;36.60;13.30;;;24.00;99.90;;;;;;5085393;28;20077;-79
2021/09/16 06:07:45;;;;;;;29.20;14.50;;;24.00;99.90;;;;;;5068105;28;20039;-79
2021/09/16 06:10:11;;;;;;;35.05;12.77;;;24.10;99.90;;;;;;5073537;28;20039;-78
2021/09/16 06:12:38;;;;;;;27.63;13.48;;;24.20;99.90;;;;;;5060890;28;20096;-77
2021/09/16 06:15:19;;;;;;;36.95;14.30;;;24.20;99.90;;;;;;5083154;28;20082;-79
2021/09/16 06:18:01;;;;;;;35.38;14.27;;;24.30;99.90;;;;;;5097071;28;20028;-79
2021/09/16 06:20:35;;;;;;;33.40;13.30;;;24.50;99.90;;;;;;5082150;28;20083;-79
2021/09/16 06:23:05;;;;;;;48.75;15.80;;;24.50;99.90;;;;;;5088384;28;20034;-79
2021/09/16 06:25:50;;;;;;;36.00;15.73;;;24.60;99.90;;;;;;5067046;28;20046;-78
2021/09/16 06:28:36;;;;;;;42.55;17.67;;;24.70;99.90;;;;;;5082693;28;20846;-81
2021/09/16 06:33:56;;;;;;;35.33;13.43;;;24.80;99.90;;;;;;5091318;28;20035;-79
2021/09/16 06:36:26;;;;;;;39.50;14.27;;;24.90;99.90;;;;;;5078166;28;20035;-83
2021/09/16 06:39:04;;;;;;;24.70;11.93;;;25.00;99.90;;;;;;5095741;28;20013;-81
2021/09/16 06:41:30;;;;;;;33.97;12.85;;;25.10;99.90;;;;;;5095874;28;20100;-79
2021/09/16 06:43:56;;;;;;;37.63;13.02;;;25.20;99.90;;;;;;5098440;28;20020;-80
2021/09/16 06:46:23;;;;;;;31.65;12.93;;;25.30;99.90;;;;;;5079059;28;20032;-78
2021/09/16 06:48:50;;;;;;;23.80;13.43;;;25.30;99.90;;;;;;5070502;28;20115;-81
2021/09/16 06:51:16;;;;;;;24.27;11.52;;;25.40;99.90;;;;;;5064274;28;20043;-79
2021/09/16 06:53:43;;;;;;;22.58;11.95;;;25.40;99.90;;;;;;5077463;28;20013;-78
2021/09/16 06:56:10;;;;;;;24.83;11.07;;;25.50;99.90;;;;;;5078501;28;20195;-79
2021/09/16 06:58:36;;;;;;;26.65;12.35;;;25.50;99.90;;;;;;5077573;28;20021;-79
2021/09/16 07:01:05;;;;;;;34.35;11.63;;;25.40;99.90;;;;;;5079100;28;20115;-80
2021/09/16 07:03:34;;;;;;;26.98;10.15;;;25.40;99.90;;;;;;5067542;28;20021;-79
2021/09/16 07:05:59;;;;;;;29.88;11.57;;;25.40;99.90;;;;;;5054678;28;20397;-80
2021/09/16 07:08:26;;;;;;;26.45;11.45;;;25.50;99.90;;;;;;5072022;28;20036;-79
2021/09/16 07:10:52;;;;;;;24.48;11.00;;;25.60;99.90;;;;;;5078431;28;20047;-79
2021/09/16 07:13:25;;;;;;;19.92;10.40;;;25.80;99.90;;;;;;5060138;28;20028;-81
2021/09/16 07:15:51;;;;;;;25.75;10.50;;;25.80;99.90;;;;;;5080858;28;20325;-80
2021/09/16 07:21:30;;;;;;;28.33;10.23;;;25.90;99.90;;;;;;4953962;28;20580;-81
2021/09/16 07:24:07;;;;;;;43.78;24.60;;;26.00;99.90;;;;;;5043230;28;20055;-79
2021/09/16 07:26:33;;;;;;;29.48;13.15;;;25.90;99.90;;;;;;5075357;28;20295;-79
2021/09/16 07:29:03;;;;;;;22.38;13.15;;;25.90;99.90;;;;;;5075760;28;20036;-79
2021/09/16 07:31:29;;;;;;;23.40;12.52;;;25.80;99.90;;;;;;5069747;28;20029;-79
2021/09/16 07:33:59;;;;;;;23.10;11.10;;;25.80;99.90;;;;;;5067788;28;20420;-77
2021/09/16 07:36:57;;;;;;;19.35;11.55;;;25.70;99.90;;;;;;5063339;28;20024;-78
2021/09/16 07:39:23;;;;;;;24.30;11.20;;;25.60;99.90;;;;;;5067319;28;20090;-77
2021/09/16 07:41:50;;;;;;;21.90;11.07;;;25.50;99.90;;;;;;5071462;28;20053;-77
2021/09/16 07:44:17;;;;;;;17.48;10.18;;;25.50;99.90;;;;;;5069339;28;20092;-79
2021/09/16 07:46:44;;;;;;;23.00;11.90;;;25.50;99.90;;;;;;5072285;28;20383;-76
2021/09/16 07:49:11;;;;;;;19.58;11.48;;;25.50;99.90;;;;;;5070328;28;20028;-77
2021/09/16 07:51:37;;;;;;;27.25;13.15;;;25.50;99.90;;;;;;5067988;28;20487;-76
2021/09/16 07:54:03;;;;;;;22.17;12.85;;;25.60;99.90;;;;;;5064756;28;20021;-77
2021/09/16 07:56:30;;;;;;;19.25;13.05;;;25.60;99.90;;;;;;5072471;28;20149;-76
2021/09/16 07:58:56;;;;;;;30.45;11.65;;;25.60;99.90;;;;;;5070573;28;20552;-78
2021/09/16 08:01:22;;;;;;;24.92;12.07;;;25.60;99.90;;;;;;5072072;28;20487;-77
2021/09/16 08:03:48;;;;;;;21.33;11.60;;;25.60;99.90;;;;;;5065851;28;20039;-77
2021/09/16 08:06:14;;;;;;;21.00;10.43;;;25.80;99.90;;;;;;5075498;28;20020;-77
2021/09/16 08:08:40;;;;;;;19.52;10.10;;;25.80;99.90;;;;;;5077474;28;20043;-77
2021/09/16 08:11:06;;;;;;;25.77;10.63;;;25.60;99.90;;;;;;5070237;28;20021;-77
2021/09/16 08:13:32;;;;;;;22.67;10.50;;;25.70;99.90;;;;;;5074679;28;20017;-77
2021/09/16 08:15:58;;;;;;;17.17;9.85;;;25.80;99.90;;;;;;5074798;28;20138;-78
2021/09/16 08:18:24;;;;;;;21.77;9.18;;;26.00;99.90;;;;;;5057719;28;20023;-78
2021/09/16 08:20:52;;;;;;;28.77;9.57;;;26.30;99.90;;;;;;5069415;28;20028;-77
2021/09/16 08:23:19;;;;;;;23.13;11.15;;;26.50;99.90;;;;;;5053091;28;20050;-77
2021/09/16 08:25:46;;;;;;;29.35;17.00;;;26.70;99.90;;;;;;5075925;28;20041;-78
2021/09/16 08:28:13;;;;;;;27.15;11.75;;;27.00;99.90;;;;;;5069614;28;20028;-77
2021/09/16 08:30:43;;;;;;;28.98;10.18;;;27.10;99.90;;;;;;5076359;28;20378;-78
2021/09/16 08:33:09;;;;;;;19.23;9.50;;;27.10;99.90;;;;;;5074962;28;20478;-78
2021/09/16 08:35:35;;;;;;;21.02;10.13;;;27.00;99.90;;;;;;5057853;28;20029;-77
2021/09/16 08:38:01;;;;;;;19.75;10.55;;;27.00;99.90;;;;;;5072058;28;20041;-79
2021/09/16 08:40:27;;;;;;;16.05;9.52;;;27.10;99.90;;;;;;5077114;28;20547;-78
2021/09/16 08:42:53;;;;;;;20.75;10.20;;;27.00;99.90;;;;;;5060039;28;20104;-78
2021/09/16 08:45:22;;;;;;;18.90;10.63;;;27.00;99.90;;;;;;5063984;28;20032;-78
2021/09/16 08:47:51;;;;;;;22.10;10.60;;;27.00;99.90;;;;;;5068766;28;20483;-78
2021/09/16 08:50:21;;;;;;;27.23;9.27;;;26.90;99.90;;;;;;5078213;28;20025;-79
2021/09/16 08:52:48;;;;;;;29.60;10.75;;;27.00;99.90;;;;;;5079188;28;20607;-79
2021/09/16 08:55:17;;;;;;;21.73;9.98;;;27.30;99.90;;;;;;5080916;28;20496;-81
2021/09/16 08:57:47;;;;;;;20.02;10.05;;;27.50;99.90;;;;;;5098989;28;20020;-80
2021/09/16 09:00:19;;;;;;;24.75;8.50;;;27.80;99.90;;;;;;5058022;28;20487;-79
2021/09/16 09:02:48;;;;;;;30.63;9.65;;;27.90;99.90;;;;;;5071614;28;20529;-79
2021/09/16 09:05:16;;;;;;;17.30;7.93;;;28.00;99.90;;;;;;5075928;28;20105;-79
2021/09/16 09:07:44;;;;;;;19.58;10.07;;;28.00;99.90;;;;;;5076465;28;20358;-77
2021/09/16 09:10:32;;;;;;;18.05;9.40;;;28.00;99.90;;;;;;5068506;28;20047;-79
2021/09/16 09:13:00;;;;;;;19.40;8.80;;;27.90;99.90;;;;;;5073241;28;20048;-78
2021/09/16 09:15:27;;;;;;;17.80;9.48;;;27.80;99.90;;;;;;5076012;28;20026;-79
2021/09/16 09:18:07;;;;;;;30.40;10.07;;;27.50;99.90;;;;;;5069007;28;20044;-79
2021/09/16 09:20:34;;;;;;;27.27;11.13;;;27.40;99.90;;;;;;5061024;28;20661;-79
2021/09/16 09:23:21;;;;;;;14.07;8.98;;;27.30;99.90;;;;;;5070618;28;20036;-79
2021/09/16 09:25:47;;;;;;;23.35;9.85;;;27.20;99.90;;;;;;5080206;28;20016;-80
2021/09/16 09:28:31;;;;;;;15.23;8.20;;;27.10;99.90;;;;;;5073047;28;20040;-80
2021/09/16 09:30:58;;;;;;;21.05;8.73;;;27.10;99.90;;;;;;5054333;28;20036;-79
2021/09/16 09:33:32;;;;;;;17.85;8.88;;;27.00;99.90;;;;;;5079472;28;20104;-79
2021/09/16 09:36:12;;;;;;;18.02;9.50;;;26.90;99.90;;;;;;5081117;28;20024;-81
2021/09/16 09:38:49;;;;;;;19.58;9.07;;;26.80;99.90;;;;;;5064460;28;20024;-80
2021/09/16 09:41:27;;;;;;;15.15;9.00;;;26.80;99.90;;;;;;5071098;28;20062;-79
2021/09/16 09:44:14;;;;;;;21.98;8.70;;;26.70;99.90;;;;;;5080691;28;20028;-80
2021/09/16 09:46:53;;;;;;;17.17;8.32;;;26.70;99.90;;;;;;5081032;28;20025;-81
2021/09/16 09:49:24;;;;;;;15.10;9.15;;;26.80;99.90;;;;;;5065217;28;20425;-79
2021/09/16 09:51:54;;;;;;;15.45;8.32;;;26.80;99.90;;;;;;5081080;28;20040;-80
2021/09/16 09:54:20;;;;;;;14.73;9.15;;;26.80;99.90;;;;;;5086791;28;20029;-80
2021/09/16 09:57:11;;;;;;;20.85;9.18;;;26.80;99.90;;;;;;5084275;28;20041;-80
2021/09/16 09:59:58;;;;;;;26.02;10.13;;;26.80;99.90;;;;;;5083784;28;20112;-80
2021/09/16 10:02:27;;;;;;;13.57;7.95;;;26.70;99.90;;;;;;5082950;28;20032;-78
2021/09/16 10:04:53;;;;;;;17.52;8.13;;;26.70;99.90;;;;;;5058423;28;20045;-79
2021/09/16 10:07:38;;;;;;;20.60;9.77;;;26.60;99.90;;;;;;5074486;28;20028;-80
2021/09/16 10:10:13;;;;;;;19.05;8.77;;;26.60;99.90;;;;;;5076279;28;20029;-79
2021/09/16 10:12:41;;;;;;;16.08;8.85;;;26.50;99.90;;;;;;5065101;28;20405;-78
2021/09/16 10:15:19;;;;;;;15.70;10.20;;;26.30;99.90;;;;;;5078886;28;20481;-79
2021/09/16 10:17:46;;;;;;;19.15;8.95;;;26.00;99.90;;;;;;5086174;28;20036;-78
2021/09/16 10:20:18;;;;;;;18.10;10.82;;;25.70;99.90;;;;;;5076437;28;20040;-79
2021/09/16 10:22:54;;;;;;;24.40;12.68;;;25.50;99.90;;;;;;5075728;28;20021;-78
2021/09/16 10:25:24;;;;;;;21.90;10.73;;;25.20;99.90;;;;;;5074116;28;20482;-79
2021/09/16 10:28:02;;;;;;;26.40;13.15;;;24.90;99.90;;;;;;5058084;28;20433;-79
2021/09/16 10:30:34;;;;;;;27.23;11.13;;;24.60;99.90;;;;;;5076087;28;20028;-79
2021/09/16 10:33:22;;;;;;;24.73;12.82;;;24.40;99.90;;;;;;5053098;28;20051;-79
2021/09/16 10:35:59;;;;;;;31.65;12.38;;;24.10;99.90;;;;;;5074160;28;20034;-80
2021/09/16 10:38:36;;;;;;;22.35;11.88;;;23.90;99.90;;;;;;5069944;28;20103;-79
2021/09/16 10:41:21;;;;;;;30.30;14.07;;;23.70;99.90;;;;;;5078731;28;20020;-79
2021/09/16 10:43:58;;;;;;;28.85;13.98;;;23.60;99.90;;;;;;5076852;28;20028;-79
2021/09/16 10:46:33;;;;;;;28.40;12.70;;;23.40;99.90;;;;;;5073384;28;20025;-79
2021/09/16 10:49:22;;;;;;;28.05;14.48;;;23.20;99.90;;;;;;5081091;28;20020;-79
2021/09/16 10:51:52;;;;;;;25.70;14.30;;;23.10;99.90;;;;;;5075932;28;20023;-78
2021/09/16 10:54:27;;;;;;;21.17;13.90;;;23.10;99.90;;;;;;5073166;28;20028;-80
2021/09/16 10:57:23;;;;;;;32.78;15.57;;;23.10;99.90;;;;;;5072930;28;20079;-80
2021/09/16 10:59:49;;;;;;;39.15;17.45;;;23.10;99.90;;;;;;5074989;28;20069;-79
2021/09/16 11:02:43;;;;;;;22.45;16.88;;;23.20;99.90;;;;;;5059649;28;20060;-78
2021/09/16 11:05:18;;;;;;;22.42;15.20;;;23.30;99.90;;;;;;5052725;28;20032;-79
2021/09/16 11:07:45;;;;;;;21.98;13.82;;;23.30;99.90;;;;;;5079678;28;20043;-79
2021/09/16 11:10:19;;;;;;;29.27;13.27;;;23.30;99.90;;;;;;5051371;28;20376;-79
2021/09/16 11:12:54;;;;;;;29.45;14.07;;;23.40;99.90;;;;;;5070128;28;20028;-78
2021/09/16 11:15:30;;;;;;;22.98;13.13;;;23.40;99.90;;;;;;5076503;28;20025;-79
2021/09/16 11:18:14;;;;;;;17.13;12.20;;;23.50;99.90;;;;;;5060516;28;20024;-78
2021/09/16 11:20:41;;;;;;;25.67;12.45;;;23.60;99.90;;;;;;5064953;28;20525;-79
2021/09/16 11:23:07;;;;;;;22.63;12.38;;;23.60;99.90;;;;;;5064984;28;20040;-79
2021/09/16 11:25:39;;;;;;;27.33;14.52;;;23.60;99.90;;;;;;5052587;28;20036;-76
2021/09/16 11:28:05;;;;;;;;;;;23.50;99.90;;;;;;5074212;28;20055;-77
2021/09/16 11:30:34;;;;;;;21.60;12.45;;;23.50;99.90;;;;;;5076652;28;20263;-78
2021/09/16 11:33:04;;;;;;;28.83;12.98;;;23.70;99.90;;;;;;5063762;28;20021;-76
2021/09/16 11:35:30;;;;;;;29.40;13.85;;;23.70;99.90;;;;;;5075304;28;20580;-76
2021/09/16 11:37:58;;;;;;;20.10;13.90;;;23.90;99.90;;;;;;5094587;28;20115;-77
2021/09/16 11:40:33;;;;;;;21.80;13.60;;;24.10;99.90;;;;;;5066152;28;20078;-76
2021/09/16 11:43:06;;;;;;;22.15;12.55;;;24.30;99.90;;;;;;5061311;28;20034;-77
2021/09/16 11:45:36;;;;;;;21.25;11.98;;;24.30;99.90;;;;;;5071901;28;20027;-78
2021/09/16 11:48:14;;;;;;;15.93;10.93;;;24.50;99.90;;;;;;5086437;28;20126;-77
2021/09/16 11:50:58;;;;;;;24.05;11.15;;;24.50;99.90;;;;;;5070614;28;20048;-77
2021/09/16 11:53:29;;;;;;;15.35;10.93;;;24.50;99.90;;;;;;5074455;28;20054;-78
2021/09/16 11:55:57;;;;;;;19.42;10.02;;;24.40;99.90;;;;;;5092324;28;20119;-76
2021/09/16 11:58:32;;;;;;;17.23;10.57;;;24.40;99.90;;;;;;5080528;28;20029;-76
2021/09/16 12:01:05;;;;;;;19.08;9.88;;;24.50;99.90;;;;;;5081606;28;20119;-77
2021/09/16 12:03:34;;;;;;;22.17;10.95;;;24.60;99.90;;;;;;5076334;28;20368;-76
2021/09/16 12:06:03;;;;;;;25.55;11.88;;;24.60;99.90;;;;;;5078777;28;20107;-76
2021/09/16 12:08:44;;;;;;;22.35;11.70;;;24.40;99.90;;;;;;5074125;28;20056;-76
2021/09/16 12:11:12;;;;;;;17.63;11.43;;;24.40;99.90;;;;;;5073800;28;20029;-77
2021/09/16 12:13:58;;;;;;;18.92;11.35;;;24.20;99.90;;;;;;5060133;28;20020;-77
2021/09/16 12:16:29;;;;;;;17.88;10.82;;;24.10;99.90;;;;;;5078106;28;20021;-76
2021/09/16 12:18:58;;;;;;;19.90;12.23;;;24.30;99.90;;;;;;5081854;28;20390;-76
2021/09/16 12:21:30;;;;;;;23.83;14.23;;;24.30;99.90;;;;;;5084086;28;20032;-76
2021/09/16 12:23:58;;;;;;;20.98;11.40;;;24.30;99.90;;;;;;5081242;28;21542;-77
2021/09/16 12:26:26;;;;;;;19.23;11.18;;;24.40;99.90;;;;;;5081775;28;20032;-76
2021/09/16 12:29:02;;;;;;;19.52;10.82;;;24.50;99.90;;;;;;5085861;28;20119;-78
2021/09/16 12:31:29;;;;;;;24.48;10.70;;;24.70;99.90;;;;;;5080419;28;20025;-76
2021/09/16 12:34:00;;;;;;;19.98;10.23;;;24.80;99.90;;;;;;5085767;28;20028;-77
2021/09/16 12:36:28;;;;;;;21.70;10.03;;;25.10;99.90;;;;;;5093952;28;20051;-76
2021/09/16 12:39:08;;;;;;;21.10;10.00;;;25.20;99.90;;;;;;5080118;28;20029;-76
2021/09/16 12:41:35;;;;;;;23.55;9.73;;;25.20;99.90;;;;;;5079131;28;20021;-77
2021/09/16 12:44:05;;;;;;;20.08;10.02;;;25.40;99.90;;;;;;5082117;28;20024;-76
2021/09/16 12:47:08;;;;;;;21.98;9.88;;;25.30;99.90;;;;;;5088657;28;20099;-76
2021/09/16 12:49:39;;;;;;;19.63;10.75;;;25.30;99.90;;;;;;5058415;28;20123;-77
2021/09/16 12:52:10;;;;;;;20.80;10.00;;;25.50;99.90;;;;;;5074423;28;20059;-77
2021/09/16 12:54:41;;;;;;;20.13;10.82;;;25.50;99.90;;;;;;5088212;28;20103;-76
2021/09/16 12:57:07;;;;;;;18.98;11.50;;;25.50;99.90;;;;;;5075734;28;20103;-76
2021/09/16 12:59:33;;;;;;;20.20;10.25;;;25.40;99.90;;;;;;5068437;28;20112;-76
2021/09/16 13:02:09;;;;;;;16.40;9.35;;;25.40;99.90;;;;;;5079288;28;20039;-77
2021/09/16 13:05:30;;;;;;;24.20;10.43;;;25.30;99.90;;;;;;5070725;28;20032;-76
2021/09/16 13:08:09;;;;;;;12.77;8.43;;;25.10;99.90;;;;;;5003756;28;20113;-76
2021/09/16 13:10:45;;;;;;;17.38;10.93;;;24.80;99.90;;;;;;5080217;28;20070;-77
2021/09/16 13:13:15;;;;;;;27.08;11.02;;;24.60;99.90;;;;;;5078579;28;20039;-76
2021/09/16 13:15:44;;;;;;;16.40;10.32;;;24.30;99.90;;;;;;5089027;28;20031;-76
2021/09/16 13:18:10;;;;;;;16.40;10.80;;;24.20;99.90;;;;;;5085898;28;20154;-76
2021/09/16 13:20:38;;;;;;;19.65;9.98;;;24.30;99.90;;;;;;5056298;28;20393;-77
2021/09/16 13:23:05;;;;;;;15.68;9.38;;;24.30;99.90;;;;;;5070646;28;20485;-77
2021/09/16 13:25:32;;;;;;;17.13;10.68;;;24.30;99.90;;;;;;5086792;28;20036;-77
2021/09/16 13:27:58;;;;;;;24.27;10.52;;;24.50;99.90;;;;;;5087413;28;20090;-77
2021/09/16 13:30:24;;;;;;;17.70;10.20;;;24.70;99.90;;;;;;5081006;28;20027;-78
2021/09/16 13:32:50;;;;;;;16.30;11.13;;;24.60;99.90;;;;;;5060058;28;20029;-78
2021/09/16 13:35:18;;;;;;;23.08;10.07;;;24.60;99.90;;;;;;5064877;28;20023;-79
2021/09/16 13:37:45;;;;;;;18.38;10.57;;;24.40;99.90;;;;;;5077863;28;20074;-79
2021/09/16 13:40:12;;;;;;;19.33;10.52;;;24.40;99.90;;;;;;5060348;28;20025;-79
2021/09/16 13:42:39;;;;;;;24.55;10.30;;;24.50;99.90;;;;;;5084580;28;20162;-79
2021/09/16 13:45:06;;;;;;;21.48;12.55;;;24.60;99.90;;;;;;5064980;28;20025;-79
2021/09/16 13:47:32;;;;;;;29.77;21.73;;;24.80;99.90;;;;;;5076331;28;20035;-80
2021/09/16 13:50:02;;;;;;;31.33;19.52;;;24.80;99.90;;;;;;5074395;28;20363;-79
2021/09/16 13:52:28;;;;;;;20.90;17.77;;;24.80;99.90;;;;;;5056832;28;20025;-79
2021/09/16 13:54:54;;;;;;;24.90;15.48;;;24.80;99.90;;;;;;5072149;28;20039;-80
2021/09/16 13:57:20;;;;;;;22.77;12.57;;;24.70;99.90;;;;;;5076335;28;20378;-80
2021/09/16 13:59:46;;;;;;;21.10;12.00;;;24.80;99.90;;;;;;5083682;28;20055;-79
2021/09/16 14:02:12;;;;;;;18.13;12.07;;;24.80;99.90;;;;;;5072296;28;20028;-80
2021/09/16 14:04:38;;;;;;;15.27;10.68;;;24.70;99.90;;;;;;5091040;28;20025;-78
2021/09/16 14:07:04;;;;;;;19.92;11.77;;;24.70;99.90;;;;;;5072705;28;20032;-78
2021/09/16 14:09:30;;;;;;;18.42;10.88;;;24.60;99.90;;;;;;5072361;28;20029;-78
2021/09/16 14:11:56;;;;;;;26.30;12.20;;;24.60;99.90;;;;;;5069612;28;20025;-77
2021/09/16 14:14:22;;;;;;;19.33;9.80;;;24.60;99.90;;;;;;5076035;28;20020;-78
2021/09/16 14:16:49;;;;;;;15.93;10.05;;;24.70;99.90;;;;;;5077558;28;20148;-80